Time;durP1;ratioP1;P1;durP2;ratioP2;P2;SDS_P1;SDS_P2;PMS_P1;PMS_P2;Temp;Humidity;BMP_temperature;BMP_pressure;BME280_temperature;BME280_humidity;BME280_pressure;Samples;Min_cycle;Max_cycle;Signal;HPM_P1;HPM_P2
2020/12/15 00:00:04;;;;;;;49.17;23.42;;;;;;;1.10;100.00;95746.31;1020203;29;20039;-77
2020/12/15 00:00:35;;;;;;;49.60;23.15;;;;;;;1.04;100.00;95747.63;1016233;29;20083;-77
2020/12/15 00:01:06;;;;;;;41.92;21.67;;;;;;;1.12;100.00;95753.06;1020110;29;20057;-77
2020/12/15 00:01:37;;;;;;;48.72;22.05;;;;;;;0.97;100.00;95722.91;1032328;28;20029;-77
2020/12/15 00:02:07;;;;;;;44.40;21.70;;;;;;;1.09;100.00;95737.63;1036462;28;20369;-77
2020/12/15 00:02:38;;;;;;;41.58;20.48;;;;;;;1.17;100.00;95750.09;1032197;28;20022;-77
2020/12/15 00:03:09;;;;;;;41.83;21.63;;;;;;;1.13;100.00;95740.81;1028126;28;20023;-77
2020/12/15 00:03:40;;;;;;;44.65;21.65;;;;;;;1.12;100.00;95736.56;1024409;29;20027;-77
2020/12/15 00:04:11;;;;;;;52.10;23.17;;;;;;;1.18;100.00;95743.06;1028327;28;20030;-77
2020/12/15 00:04:41;;;;;;;49.33;23.23;;;;;;;1.23;100.00;95749.59;1020315;29;20032;-77
2020/12/15 00:05:12;;;;;;;50.45;23.35;;;;;;;1.22;100.00;95753.19;1028216;28;20038;-77
2020/12/15 00:05:43;;;;;;;47.95;22.33;;;;;;;1.24;100.00;95753.06;1024534;29;20023;-77
2020/12/15 00:06:15;;;;;;;46.17;21.98;;;;;;;1.19;100.00;95749.97;1028330;28;20586;-78
2020/12/15 00:06:45;;;;;;;51.72;23.20;;;;;;;1.18;100.00;95750.94;1028473;28;20030;-77
2020/12/15 00:07:16;;;;;;;44.40;21.13;;;;;;;1.11;100.00;95743.56;1028272;28;20541;-77
2020/12/15 00:07:47;;;;;;;50.35;23.38;;;;;;;1.10;100.00;95748.94;1036566;28;20022;-78
2020/12/15 00:08:18;;;;;;;51.13;23.02;;;;;;;0.99;100.00;95738.50;1032428;28;20026;-77
2020/12/15 00:08:48;;;;;;;43.15;21.65;;;;;;;1.03;100.00;95739.91;1028240;28;20427;-76
2020/12/15 00:09:19;;;;;;;50.10;22.85;;;;;;;1.04;100.00;95745.00;1027972;28;20027;-78
2020/12/15 00:09:50;;;;;;;48.25;22.70;;;;;;;1.02;100.00;95748.72;1032126;28;20025;-77
2020/12/15 00:10:21;;;;;;;47.58;21.75;;;;;;;0.98;100.00;95749.91;1024084;29;20031;-77
2020/12/15 00:10:51;;;;;;;43.85;22.08;;;;;;;0.99;100.00;95748.94;1028119;28;20368;-76
2020/12/15 00:11:22;;;;;;;45.92;22.08;;;;;;;0.93;100.00;95738.03;1027947;28;20537;-76
2020/12/15 00:11:53;;;;;;;44.47;20.52;;;;;;;0.99;100.00;95741.09;1027729;28;20015;-77
2020/12/15 00:12:23;;;;;;;45.03;22.15;;;;;;;0.92;100.00;95735.53;1020123;29;20015;-77
2020/12/15 00:12:54;;;;;;;53.35;23.42;;;;;;;0.97;100.00;95741.22;1027942;28;20023;-76
2020/12/15 00:13:25;;;;;;;48.72;23.58;;;;;;;1.03;100.00;95745.13;1032010;28;20073;-77
2020/12/15 00:13:55;;;;;;;58.58;23.25;;;;;;;1.00;100.00;95746.22;1036084;28;20014;-77
2020/12/15 00:14:26;;;;;;;47.85;22.25;;;;;;;0.94;100.00;95734.47;1032344;28;20494;-77
2020/12/15 00:14:57;;;;;;;43.35;21.05;;;;;;;0.99;100.00;95749.75;1024253;28;20090;-77
2020/12/15 00:15:27;;;;;;;54.72;23.45;;;;;;;1.01;100.00;95749.66;1024401;28;20606;-77
2020/12/15 00:15:58;;;;;;;47.85;22.25;;;;;;;0.95;100.00;95743.13;1028507;28;20029;-77
2020/12/15 00:16:29;;;;;;;45.03;22.38;;;;;;;0.98;100.00;95748.13;1028399;28;20018;-77
2020/12/15 00:17:00;;;;;;;51.28;23.02;;;;;;;0.73;100.00;95707.41;1028159;28;20019;-77
2020/12/15 00:17:30;;;;;;;53.17;22.75;;;;;;;1.06;100.00;95744.88;1036560;28;20490;-77
2020/12/15 00:18:01;;;;;;;56.17;24.13;;;;;;;1.12;100.00;95762.72;1032351;28;20022;-77
2020/12/15 00:18:32;;;;;;;45.47;21.58;;;;;;;1.15;100.00;95761.63;1028520;28;20050;-77
2020/12/15 00:19:03;;;;;;;43.75;20.88;;;;;;;1.12;100.00;95760.91;1036283;28;20018;-77
2020/12/15 00:19:34;;;;;;;41.20;21.33;;;;;;;1.17;100.00;95771.03;1024412;28;20020;-77
2020/12/15 00:20:12;;;;;;;43.42;20.17;;;;;;;1.03;100.00;95739.91;1020438;29;20058;-77
2020/12/15 00:20:42;;;;;;;50.53;22.23;;;;;;;1.14;100.00;95773.88;1036349;28;20061;-77
2020/12/15 00:21:21;;;;;;;42.85;21.02;;;;;;;1.13;100.00;95767.81;1028013;28;20446;-77
2020/12/15 00:21:53;;;;;;;47.90;21.73;;;;;;;1.17;100.00;95768.41;1032392;28;20019;-77
2020/12/15 00:22:23;;;;;;;48.50;21.83;;;;;;;1.00;100.00;95738.38;1028371;28;20427;-77
2020/12/15 00:22:54;;;;;;;49.40;22.40;;;;;;;1.09;100.00;95763.78;1032297;28;20058;-77
2020/12/15 00:23:25;;;;;;;45.50;20.77;;;;;;;1.13;100.00;95759.13;1032364;28;20109;-77
2020/12/15 00:23:55;;;;;;;42.00;20.17;;;;;;;1.03;100.00;95743.38;1016487;29;20024;-77
2020/12/15 00:24:26;;;;;;;44.38;20.33;;;;;;;0.99;100.00;95743.72;1032334;28;20028;-77
2020/12/15 00:24:57;;;;;;;47.20;21.20;;;;;;;1.01;100.00;95763.56;1020460;28;20024;-77
2020/12/15 00:25:28;;;;;;;56.42;20.73;;;;;;;1.01;100.00;95770.56;1028148;28;20054;-77
2020/12/15 00:25:58;;;;;;;43.85;21.73;;;;;;;1.08;100.00;95771.75;1028073;28;20026;-78
2020/12/15 00:26:29;;;;;;;41.83;20.15;;;;;;;1.00;100.00;95755.84;1024205;29;20011;-77
2020/12/15 00:27:00;;;;;;;43.15;20.50;;;;;;;1.12;100.00;95766.16;1028004;28;20023;-76
2020/12/15 00:27:31;;;;;;;41.72;20.77;;;;;;;1.13;100.00;95766.97;1028065;28;20506;-77
2020/12/15 00:28:01;;;;;;;45.63;21.98;;;;;;;0.97;100.00;95756.91;1024007;29;20123;-77
2020/12/15 00:28:32;;;;;;;43.03;20.33;;;;;;;1.06;100.00;95771.88;1033090;28;20602;-77
2020/12/15 00:29:03;;;;;;;42.28;20.30;;;;;;;1.01;100.00;95778.41;1028986;28;20058;-77
2020/12/15 00:29:35;;;;;;;50.05;22.35;;;;;;;0.91;100.00;95762.63;1020356;29;20472;-77
2020/12/15 00:30:06;;;;;;;49.15;21.70;;;;;;;1.09;100.00;95776.03;1020243;29;20039;-77
2020/12/15 00:30:37;;;;;;;47.28;20.75;;;;;;;1.06;100.00;95771.03;1020331;29;20036;-77
2020/12/15 00:31:07;;;;;;;43.05;20.80;;;;;;;1.11;100.00;95784.56;1028006;28;20473;-77
2020/12/15 00:31:38;;;;;;;50.63;20.65;;;;;;;1.08;100.00;95780.44;1020408;29;20031;-77
2020/12/15 00:32:09;;;;;;;47.17;21.80;;;;;;;1.13;100.00;95783.50;1024395;29;20035;-77
2020/12/15 00:32:40;;;;;;;44.75;19.98;;;;;;;1.04;100.00;95768.53;1028334;28;20022;-77
2020/12/15 00:33:11;;;;;;;50.65;21.60;;;;;;;1.10;100.00;95780.31;1031916;28;20034;-76
2020/12/15 00:33:42;;;;;;;49.20;21.35;;;;;;;1.16;100.00;95776.38;1024081;28;20027;-77
2020/12/15 00:34:12;;;;;;;49.92;20.58;;;;;;;1.15;100.00;95778.16;1023935;29;20031;-77
2020/12/15 00:34:43;;;;;;;48.63;21.90;;;;;;;1.01;100.00;95757.50;1027865;28;20026;-76
2020/12/15 00:35:14;;;;;;;50.20;21.88;;;;;;;1.09;100.00;95778.63;1023832;29;20023;-77
2020/12/15 00:35:45;;;;;;;44.13;20.98;;;;;;;1.15;100.00;95775.56;1024042;28;20115;-77
2020/12/15 00:36:23;;;;;;;43.22;19.77;;;;;;;1.10;100.00;95768.06;1032108;28;20455;-76
2020/12/15 00:36:57;;;;;;;42.05;19.02;;;;;;;1.11;100.00;95784.56;1027922;28;20058;-76
2020/12/15 00:37:33;;;;;;;42.67;19.75;;;;;;;1.12;100.00;95781.03;1028045;28;20078;-77
2020/12/15 00:38:04;;;;;;;41.63;20.25;;;;;;;0.92;100.00;95762.53;1028144;28;20026;-77
2020/12/15 00:38:35;;;;;;;48.13;21.63;;;;;;;1.08;100.00;95785.66;1032316;28;20568;-77
2020/12/15 00:39:06;;;;;;;47.03;20.38;;;;;;;1.06;100.00;95781.50;1024310;28;20034;-77
2020/12/15 00:39:37;;;;;;;42.97;19.15;;;;;;;1.10;100.00;95780.31;1028538;28;20070;-77
2020/12/15 00:40:08;;;;;;;47.30;20.52;;;;;;;1.01;100.00;95779.25;1032359;28;20026;-77
2020/12/15 00:40:39;;;;;;;49.88;20.75;;;;;;;0.94;100.00;95781.53;1028356;28;20468;-77
2020/12/15 00:41:10;;;;;;;52.97;22.02;;;;;;;0.93;100.00;95779.84;1028042;28;20490;-77
2020/12/15 00:41:41;;;;;;;46.67;20.88;;;;;;;0.92;100.00;95765.13;1024148;28;20027;-77
2020/12/15 00:42:12;;;;;;;53.92;22.10;;;;;;;0.98;100.00;95783.91;1016108;28;20095;-77
2020/12/15 00:42:42;;;;;;;52.88;21.85;;;;;;;0.96;100.00;95768.34;1023995;28;20079;-76
2020/12/15 00:43:16;;;;;;;53.40;21.48;;;;;;;0.97;100.00;95782.22;1027941;28;20499;-78
2020/12/15 00:43:47;;;;;;;49.38;22.00;;;;;;;0.96;100.00;95785.78;1028047;28;20027;-77
2020/12/15 00:44:18;;;;;;;51.95;22.33;;;;;;;1.03;100.00;95781.72;1028057;28;20022;-77
2020/12/15 00:44:49;;;;;;;58.03;22.40;;;;;;;1.03;100.00;95787.81;1023963;29;20035;-76
2020/12/15 00:45:20;;;;;;;53.13;22.23;;;;;;;1.08;100.00;95784.81;1031835;28;20417;-77
2020/12/15 00:45:51;;;;;;;55.53;22.05;;;;;;;1.11;100.00;95787.19;1023969;29;20050;-77
2020/12/15 00:46:22;;;;;;;54.22;21.67;;;;;;;1.03;100.00;95782.56;1028016;28;20109;-77
2020/12/15 00:46:52;;;;;;;50.30;21.80;;;;;;;0.98;100.00;95778.69;1035944;28;20025;-77
2020/12/15 00:47:24;;;;;;;54.47;22.83;;;;;;;1.01;100.00;95788.88;1032007;28;20022;-77
2020/12/15 00:47:54;;;;;;;78.50;26.05;;;;;;;0.98;100.00;95789.13;1027957;28;20027;-77
2020/12/15 00:48:25;;;;;;;61.33;24.17;;;;;;;0.81;100.00;95757.28;1028057;28;20019;-77
2020/12/15 00:48:56;;;;;;;55.58;23.67;;;;;;;0.84;100.00;95767.50;1027869;28;20030;-77
2020/12/15 00:49:27;;;;;;;68.47;22.40;;;;;;;0.86;100.00;95768.22;1031962;28;20026;-77
2020/12/15 00:49:57;;;;;;;105.90;26.45;;;;;;;0.83;100.00;95771.06;1031942;28;20050;-77
2020/12/15 00:50:29;;;;;;;112.97;26.80;;;;;;;0.81;100.00;95772.97;1031926;28;20026;-77
2020/12/15 00:50:59;;;;;;;134.82;29.40;;;;;;;0.88;100.00;95789.00;1027664;28;20042;-76
2020/12/15 00:51:30;;;;;;;79.38;24.85;;;;;;;0.94;100.00;95781.53;1027987;28;20467;-77
2020/12/15 00:52:01;;;;;;;64.63;23.52;;;;;;;0.97;100.00;95777.81;1027934;28;20031;-77
2020/12/15 00:52:32;;;;;;;58.53;24.45;;;;;;;0.96;100.00;95784.03;1028147;28;20113;-78
2020/12/15 00:53:03;;;;;;;61.65;24.83;;;;;;;0.92;100.00;95765.13;1027825;28;20108;-77
2020/12/15 00:53:34;;;;;;;57.05;23.50;;;;;;;1.02;100.00;95780.09;1024151;28;20440;-77
2020/12/15 00:54:04;;;;;;;58.97;23.35;;;;;;;0.98;100.00;95779.50;1032268;28;20022;-77
2020/12/15 00:54:35;;;;;;;49.03;22.27;;;;;;;0.99;100.00;95785.53;1028181;28;20022;-77
2020/12/15 00:55:06;;;;;;;67.63;23.85;;;;;;;0.91;100.00;95767.88;1024027;29;20098;-77
2020/12/15 00:55:37;;;;;;;84.90;26.50;;;;;;;0.97;100.00;95782.22;1032346;28;20505;-77
2020/12/15 00:56:08;;;;;;;88.18;26.70;;;;;;;0.97;100.00;95783.06;1024227;28;20035;-77
2020/12/15 00:56:40;;;;;;;106.18;29.33;;;;;;;0.96;100.00;95788.41;1024286;29;20022;-77
2020/12/15 00:57:11;;;;;;;61.33;23.88;;;;;;;0.94;100.00;95788.50;1028175;28;20034;-77
2020/12/15 00:57:42;;;;;;;61.85;23.60;;;;;;;0.90;100.00;95792.34;1020427;29;20031;-77
2020/12/15 00:58:13;;;;;;;105.55;27.90;;;;;;;0.68;100.00;95775.72;1020360;29;20015;-78
2020/12/15 00:58:44;;;;;;;156.88;29.23;;;;;;;0.51;100.00;95750.91;1036144;28;20059;-77
2020/12/15 00:59:15;;;;;;;75.95;22.73;;;;;;;0.87;100.00;95782.97;1031873;28;20486;-77
2020/12/15 00:59:46;;;;;;;83.13;25.52;;;;;;;0.78;100.00;95772.38;1027587;28;20030;-77
2020/12/15 01:00:16;;;;;;;114.15;28.70;;;;;;;0.79;100.00;95769.66;1035974;28;20025;-77
2020/12/15 01:00:47;;;;;;;128.88;30.85;;;;;;;0.90;100.00;95787.94;1023837;29;20450;-76
2020/12/15 01:01:18;;;;;;;163.85;32.78;;;;;;;0.90;100.00;95782.69;1032224;28;20465;-78
2020/12/15 01:01:49;;;;;;;180.18;35.22;;;;;;;0.92;100.00;95785.19;1037041;28;20022;-78
2020/12/15 01:02:20;;;;;;;157.57;34.33;;;;;;;0.83;100.00;95760.59;1028355;28;20030;-78
2020/12/15 01:02:51;;;;;;;106.55;28.92;;;;;;;0.98;100.00;95778.69;1036211;28;20393;-77
2020/12/15 01:03:21;;;;;;;80.95;27.00;;;;;;;0.85;100.00;95763.09;1032121;28;20027;-77
2020/12/15 01:03:52;;;;;;;75.22;26.17;;;;;;;0.79;100.00;95756.59;1028097;28;20081;-77
2020/12/15 01:04:23;;;;;;;71.38;25.52;;;;;;;0.88;100.00;95779.38;1023995;28;20031;-77
2020/12/15 01:04:55;;;;;;;58.55;25.15;;;;;;;0.75;100.00;95763.84;1031795;28;20569;-77
2020/12/15 01:05:27;;;;;;;58.10;24.90;;;;;;;0.78;100.00;95770.59;1027960;28;20033;-77
2020/12/15 01:05:58;;;;;;;62.03;23.73;;;;;;;0.83;100.00;95776.28;1019933;29;20484;-76
2020/12/15 01:06:29;;;;;;;59.42;23.42;;;;;;;0.83;100.00;95768.44;1024073;29;20118;-77
2020/12/15 01:07:00;;;;;;;59.15;23.70;;;;;;;0.91;100.00;95783.56;1027685;28;20019;-76
2020/12/15 01:07:31;;;;;;;71.18;25.35;;;;;;;0.81;100.00;95778.19;1035903;28;20033;-77
2020/12/15 01:08:01;;;;;;;63.63;24.60;;;;;;;0.97;100.00;95782.22;1024097;29;20027;-76
2020/12/15 01:08:32;;;;;;;62.28;25.40;;;;;;;0.85;100.00;95769.16;1036112;28;20026;-78
2020/12/15 01:09:04;;;;;;;65.05;25.65;;;;;;;1.01;100.00;95783.63;1028394;28;20026;-76
2020/12/15 01:09:35;;;;;;;72.03;25.40;;;;;;;1.01;100.00;95794.09;1031960;28;20057;-76
2020/12/15 01:10:05;;;;;;;67.07;24.58;;;;;;;1.06;100.00;95792.81;1035925;28;20087;-77
2020/12/15 01:10:36;;;;;;;58.05;22.83;;;;;;;0.94;100.00;95784.13;1032032;28;20030;-78
2020/12/15 01:11:07;;;;;;;48.75;21.02;;;;;;;1.04;100.00;95784.22;1035922;28;20080;-76
2020/12/15 01:11:37;;;;;;;76.43;23.17;;;;;;;0.97;100.00;95771.78;1023788;28;20049;-76
2020/12/15 01:12:10;;;;;;;70.80;23.73;;;;;;;1.01;100.00;95788.88;1028004;28;20025;-77
2020/12/15 01:12:41;;;;;;;60.15;22.55;;;;;;;1.05;100.00;95795.53;1028253;28;20328;-77
2020/12/15 01:13:12;;;;;;;49.10;20.83;;;;;;;1.08;100.00;95797.88;1027975;28;20023;-77
2020/12/15 01:13:43;;;;;;;64.80;23.17;;;;;;;0.84;100.00;95777.97;1028198;28;20046;-77
2020/12/15 01:14:13;;;;;;;54.13;22.92;;;;;;;0.91;100.00;95784.38;1036082;28;20061;-77
2020/12/15 01:14:44;;;;;;;48.10;21.17;;;;;;;0.96;100.00;95791.00;1031896;28;20521;-77
2020/12/15 01:15:15;;;;;;;78.07;26.33;;;;;;;1.09;100.00;95797.75;1027947;28;20122;-77
2020/12/15 01:15:46;;;;;;;88.95;26.15;;;;;;;1.00;100.00;95790.66;1028209;28;20046;-77
2020/12/15 01:16:17;;;;;;;65.43;24.52;;;;;;;1.03;100.00;95784.34;1028031;28;20031;-76
2020/12/15 01:16:47;;;;;;;90.90;28.10;;;;;;;0.99;100.00;95796.00;1028277;28;20027;-77
2020/12/15 01:17:18;;;;;;;66.95;24.02;;;;;;;0.81;100.00;95775.59;1023974;29;20508;-77
2020/12/15 01:17:49;;;;;;;119.00;29.60;;;;;;;0.90;100.00;95795.75;1020269;28;20027;-77
2020/12/15 01:18:20;;;;;;;101.32;29.35;;;;;;;0.93;100.00;95792.09;1023999;28;20031;-77
2020/12/15 01:18:50;;;;;;;68.60;24.52;;;;;;;1.02;100.00;95793.97;1023862;28;20035;-76
2020/12/15 01:19:21;;;;;;;79.30;28.02;;;;;;;0.96;100.00;95794.47;1031980;28;20030;-76
2020/12/15 01:19:52;;;;;;;111.47;27.92;;;;;;;0.74;100.00;95780.47;1027866;28;20027;-77
2020/12/15 01:20:23;;;;;;;100.00;28.90;;;;;;;0.84;100.00;95787.59;1035901;28;20022;-76
2020/12/15 01:20:53;;;;;;;128.77;29.73;;;;;;;0.85;100.00;95790.06;1032033;28;20122;-76
2020/12/15 01:21:25;;;;;;;158.70;32.13;;;;;;;0.77;100.00;95792.47;1032014;28;20556;-77
2020/12/15 01:21:57;;;;;;;181.52;33.45;;;;;;;0.81;100.00;95796.50;1032444;28;20026;-77
2020/12/15 01:22:27;;;;;;;244.77;36.72;;;;;;;0.73;100.00;95788.41;1032086;28;20030;-77
2020/12/15 01:22:58;;;;;;;317.70;44.00;;;;;;;0.74;100.00;95798.75;1020063;28;20027;-77
2020/12/15 01:23:29;;;;;;;292.50;41.63;;;;;;;0.73;100.00;95797.09;1024220;29;20023;-77
2020/12/15 01:24:00;;;;;;;289.73;44.90;;;;;;;0.72;100.00;95784.16;1023971;29;20027;-77
2020/12/15 01:24:30;;;;;;;193.98;38.55;;;;;;;0.83;100.00;95801.59;1031873;28;20121;-77
2020/12/15 01:25:02;;;;;;;136.52;33.33;;;;;;;0.92;100.00;95798.25;1031705;28;20030;-76
2020/12/15 01:25:32;;;;;;;201.82;37.70;;;;;;;0.92;100.00;95793.88;1027952;28;20027;-77
2020/12/15 01:26:03;;;;;;;251.75;42.95;;;;;;;0.91;100.00;95800.06;1032142;28;20022;-77
2020/12/15 01:26:34;;;;;;;148.57;35.60;;;;;;;0.84;100.00;95774.53;1024033;29;20059;-78
2020/12/15 01:27:04;;;;;;;152.13;33.90;;;;;;;0.81;100.00;95793.06;1019730;28;20024;-77
2020/12/15 01:27:35;;;;;;;110.55;30.20;;;;;;;0.87;100.00;95793.41;1028019;28;20019;-78
2020/12/15 01:28:06;;;;;;;86.55;28.95;;;;;;;0.86;100.00;95788.31;1031863;28;20114;-77
2020/12/15 01:28:37;;;;;;;78.53;27.30;;;;;;;0.68;100.00;95778.34;1019963;29;20415;-77
2020/12/15 01:29:08;;;;;;;109.45;28.52;;;;;;;0.77;100.00;95792.47;1032453;28;20026;-78
2020/12/15 01:29:38;;;;;;;117.82;29.05;;;;;;;0.82;100.00;95786.88;1032531;28;20034;-78
2020/12/15 01:30:09;;;;;;;108.55;30.95;;;;;;;0.84;100.00;95774.53;1031990;28;20054;-78
2020/12/15 01:30:40;;;;;;;159.23;32.25;;;;;;;0.72;100.00;95773.69;1028092;28;20026;-78
2020/12/15 01:31:11;;;;;;;118.80;29.77;;;;;;;0.69;100.00;95774.75;1019724;28;20039;-77
2020/12/15 01:31:42;;;;;;;66.45;22.52;;;;;;;0.74;100.00;95775.22;1031978;28;20028;-77
2020/12/15 01:32:12;;;;;;;139.90;28.63;;;;;;;0.79;100.00;95768.84;1027747;28;20015;-77
2020/12/15 01:32:43;;;;;;;233.57;42.67;;;;;;;0.41;100.00;95707.34;1031870;28;20077;-77
2020/12/15 01:33:14;;;;;;;165.48;33.45;;;;;;;0.84;100.00;95775.34;1031664;28;20084;-77
2020/12/15 01:33:45;;;;;;;101.03;28.75;;;;;;;0.81;100.00;95774.75;1027915;28;20110;-77
2020/12/15 01:34:16;;;;;;;174.48;37.92;;;;;;;0.60;100.00;95743.31;1031937;28;20077;-79
2020/12/15 01:34:47;;;;;;;251.05;40.05;;;;;;;0.77;100.00;95774.19;1027745;28;20015;-77
2020/12/15 01:35:18;;;;;;;118.50;29.45;;;;;;;0.68;100.00;95749.59;1027910;28;20426;-77
2020/12/15 01:35:49;;;;;;;135.32;31.45;;;;;;;0.63;100.00;95754.34;1020030;29;20103;-78
2020/12/15 01:36:30;;;;;;;261.33;39.58;;;;;;;0.58;100.00;95755.66;1023926;29;20015;-77
2020/12/15 01:37:03;;;;;;;162.45;31.15;;;;;;;0.56;100.00;95751.38;1019780;29;20472;-77
2020/12/15 01:37:35;;;;;;;153.18;29.38;;;;;;;0.67;100.00;95770.63;1027907;28;20078;-77
2020/12/15 01:38:05;;;;;;;172.32;32.20;;;;;;;0.60;100.00;95767.63;1020087;28;20015;-78
2020/12/15 01:38:36;;;;;;;169.95;31.58;;;;;;;0.61;100.00;95763.25;1027861;28;20047;-77
2020/12/15 01:39:07;;;;;;;149.95;29.80;;;;;;;0.59;100.00;95776.41;1027689;28;20435;-77
2020/12/15 01:39:37;;;;;;;168.30;30.27;;;;;;;0.57;100.00;95775.72;1023912;29;20052;-77
2020/12/15 01:40:08;;;;;;;173.63;31.73;;;;;;;0.58;100.00;95777.38;1015919;29;20031;-76
2020/12/15 01:40:49;;;;;;;257.45;37.15;;;;;;;0.58;100.00;95780.00;1024039;28;20467;-77
2020/12/15 01:41:20;;;;;;;470.38;53.78;;;;;;;0.54;100.00;95776.78;1023971;28;20020;-77
2020/12/15 01:41:50;;;;;;;259.02;39.03;;;;;;;0.53;100.00;95769.91;1023869;28;20027;-76
2020/12/15 01:42:21;;;;;;;501.42;57.95;;;;;;;0.63;100.00;95779.63;1027933;28;20569;-77
2020/12/15 01:42:52;;;;;;;391.42;49.45;;;;;;;0.55;100.00;95769.78;1031900;28;20015;-76
2020/12/15 01:43:23;;;;;;;461.85;57.20;;;;;;;0.58;100.00;95784.41;1031829;28;20025;-77
2020/12/15 01:44:01;;;;;;;251.65;42.53;;;;;;;0.50;100.00;95770.13;1027825;28;20026;-77
2020/12/15 01:44:32;;;;;;;442.60;53.42;;;;;;;0.55;100.00;95782.84;1035774;28;20025;-77
2020/12/15 01:45:04;;;;;;;426.65;55.22;;;;;;;0.53;100.00;95776.91;1039883;28;20021;-77
2020/12/15 01:45:35;;;;;;;318.15;45.17;;;;;;;0.62;100.00;95786.63;1027886;28;20019;-77
2020/12/15 01:46:06;;;;;;;350.60;50.15;;;;;;;0.55;100.00;95773.22;1031890;28;20117;-77
2020/12/15 01:46:37;;;;;;;283.73;43.10;;;;;;;0.54;100.00;95766.34;1031861;28;20014;-77
2020/12/15 01:47:08;;;;;;;355.77;48.28;;;;;;;0.68;100.00;95785.31;1027634;28;20587;-77
2020/12/15 01:47:39;;;;;;;290.63;45.55;;;;;;;0.61;100.00;95777.16;1035926;28;20101;-77
2020/12/15 01:48:10;;;;;;;231.40;41.40;;;;;;;0.67;100.00;95787.13;1035878;28;20025;-77
2020/12/15 01:48:40;;;;;;;257.17;43.03;;;;;;;0.50;100.00;95764.91;1031829;28;20022;-77
2020/12/15 01:49:11;;;;;;;274.85;43.78;;;;;;;0.58;100.00;95772.16;1019728;29;20111;-76
2020/12/15 01:49:42;;;;;;;339.75;47.67;;;;;;;0.69;100.00;95784.38;1023921;28;20011;-77
2020/12/15 01:50:13;;;;;;;336.58;47.33;;;;;;;0.58;100.00;95766.94;1027816;28;20025;-76
2020/12/15 01:50:44;;;;;;;108.80;29.92;;;;;;;0.61;100.00;95773.69;1035945;28;20028;-76
2020/12/15 01:51:15;;;;;;;179.50;32.67;;;;;;;0.60;100.00;95772.88;1023717;28;20024;-76
2020/12/15 01:51:46;;;;;;;328.88;43.95;;;;;;;0.63;100.00;95777.00;1027749;28;20023;-77
2020/12/15 01:52:17;;;;;;;315.38;44.30;;;;;;;0.60;100.00;95780.72;1031918;28;20018;-77
2020/12/15 01:52:48;;;;;;;325.00;44.92;;;;;;;0.47;100.00;95756.47;1019925;28;20063;-76
2020/12/15 01:53:19;;;;;;;375.52;51.00;;;;;;;0.47;100.00;95765.16;1031711;28;20023;-77
2020/12/15 01:53:50;;;;;;;337.73;47.67;;;;;;;0.41;100.00;95749.94;1027895;28;20391;-77
2020/12/15 01:54:21;;;;;;;180.95;36.83;;;;;;;0.53;100.00;95771.69;1027616;28;20023;-77
2020/12/15 01:54:52;;;;;;;300.60;46.97;;;;;;;0.48;100.00;95766.81;1019847;28;20030;-76
2020/12/15 01:55:23;;;;;;;217.95;39.92;;;;;;;0.61;100.00;95786.75;1031863;28;20026;-77
2020/12/15 01:55:53;;;;;;;390.23;51.38;;;;;;;0.56;100.00;95780.13;1035855;28;20018;-77
2020/12/15 01:56:25;;;;;;;316.48;45.15;;;;;;;0.61;100.00;95777.16;1024004;29;20019;-77
2020/12/15 01:56:56;;;;;;;232.18;38.38;;;;;;;0.71;100.00;95777.25;1035832;28;20470;-76
2020/12/15 01:57:27;;;;;;;116.10;29.23;;;;;;;0.68;100.00;95767.03;1035944;28;20022;-77
2020/12/15 01:57:58;;;;;;;347.60;48.28;;;;;;;0.62;100.00;95775.38;1031850;28;20026;-76
2020/12/15 01:58:29;;;;;;;362.48;50.90;;;;;;;0.56;100.00;95774.88;1027737;28;20023;-77
2020/12/15 01:59:03;;;;;;;224.55;40.65;;;;;;;0.60;100.00;95774.66;1019804;29;20016;-77
2020/12/15 01:59:33;;;;;;;285.30;44.17;;;;;;;0.61;100.00;95782.38;1035771;28;20386;-77
2020/12/15 02:00:04;;;;;;;182.38;36.17;;;;;;;0.63;100.00;95780.47;1023928;29;20127;-77
2020/12/15 02:00:35;;;;;;;183.23;36.47;;;;;;;0.63;100.00;95774.41;1031815;28;20018;-77
2020/12/15 02:01:06;;;;;;;279.67;44.90;;;;;;;0.62;100.00;95775.38;1027608;28;20019;-77
2020/12/15 02:01:45;;;;;;;271.33;41.03;;;;;;;0.70;100.00;95778.22;1027817;28;20026;-77
2020/12/15 02:02:19;;;;;;;267.50;41.40;;;;;;;0.48;100.00;95737.25;1031796;28;20025;-77
2020/12/15 02:02:49;;;;;;;412.35;53.85;;;;;;;0.64;100.00;95763.81;1019750;29;20102;-76
2020/12/15 02:03:20;;;;;;;256.00;41.85;;;;;;;0.65;100.00;95767.28;1027808;28;20022;-76
2020/12/15 02:03:51;;;;;;;300.65;43.10;;;;;;;0.58;100.00;95761.72;1027856;28;20085;-77
2020/12/15 02:04:23;;;;;;;248.88;41.58;;;;;;;0.49;100.00;95767.66;1019779;29;20513;-76
2020/12/15 02:04:54;;;;;;;220.85;38.70;;;;;;;0.60;100.00;95769.44;1032160;28;20023;-77
2020/12/15 02:05:25;;;;;;;157.77;35.42;;;;;;;0.57;100.00;95775.72;1027816;28;20051;-77
2020/12/15 02:05:56;;;;;;;166.52;33.92;;;;;;;0.59;100.00;95773.81;1035826;28;20028;-77
2020/12/15 02:06:27;;;;;;;213.00;38.65;;;;;;;0.61;100.00;95774.53;1031772;28;20026;-77
2020/12/15 02:06:58;;;;;;;270.85;43.17;;;;;;;0.43;100.00;95758.50;1027868;28;20090;-77
2020/12/15 02:07:29;;;;;;;137.65;31.95;;;;;;;0.61;100.00;95781.53;1032104;28;20018;-78
2020/12/15 02:08:00;;;;;;;267.90;42.75;;;;;;;0.47;100.00;95761.69;1028555;28;20525;-78
2020/12/15 02:08:30;;;;;;;314.90;48.20;;;;;;;0.46;100.00;95784.38;1028278;28;20021;-78
2020/12/15 02:09:04;;;;;;;148.07;33.92;;;;;;;0.53;100.00;95777.72;1027984;28;20026;-77
2020/12/15 02:09:35;;;;;;;138.73;32.70;;;;;;;0.66;100.00;95784.63;1023881;28;20107;-77
2020/12/15 02:10:06;;;;;;;144.57;32.53;;;;;;;0.57;100.00;95775.72;1027864;28;20031;-78
2020/12/15 02:10:36;;;;;;;217.52;38.20;;;;;;;0.51;100.00;95776.19;1027746;28;20024;-76
2020/12/15 02:11:07;;;;;;;139.65;32.88;;;;;;;0.57;100.00;95788.78;1024162;29;20087;-76
2020/12/15 02:11:38;;;;;;;145.63;32.38;;;;;;;0.48;100.00;95787.69;1032129;28;20033;-76
2020/12/15 02:12:09;;;;;;;103.70;29.42;;;;;;;0.60;100.00;95787.72;1028487;28;20411;-76
2020/12/15 02:12:40;;;;;;;171.05;36.05;;;;;;;0.57;100.00;95786.16;1024620;29;20031;-76
2020/12/15 02:13:11;;;;;;;240.23;39.65;;;;;;;0.50;100.00;95791.03;1028341;28;20114;-76
2020/12/15 02:13:45;;;;;;;224.10;37.78;;;;;;;0.33;100.00;95774.06;1028650;28;20027;-77
2020/12/15 02:14:16;;;;;;;243.27;38.58;;;;;;;0.42;100.00;95769.06;1032543;28;20022;-77
2020/12/15 02:14:47;;;;;;;271.73;42.92;;;;;;;0.42;100.00;95771.66;1020505;28;20114;-77
2020/12/15 02:15:17;;;;;;;272.35;43.55;;;;;;;0.44;100.00;95773.22;1028417;28;20034;-76
2020/12/15 02:15:49;;;;;;;161.45;32.20;;;;;;;0.51;100.00;95766.56;1032515;28;20026;-76
2020/12/15 02:16:19;;;;;;;320.42;45.10;;;;;;;0.53;100.00;95774.28;1024543;29;20019;-76
2020/12/15 02:16:50;;;;;;;185.00;36.47;;;;;;;0.69;100.00;95797.44;1032505;28;20052;-76
2020/12/15 02:17:21;;;;;;;428.75;53.92;;;;;;;0.63;100.00;95780.47;1032492;28;20022;-77
2020/12/15 02:17:52;;;;;;;199.15;35.60;;;;;;;0.72;100.00;95792.00;1036817;28;20027;-77
2020/12/15 02:18:23;;;;;;;123.90;28.17;;;;;;;0.80;100.00;95797.47;1020504;29;20445;-78
2020/12/15 02:18:53;;;;;;;322.25;43.60;;;;;;;0.73;100.00;95794.50;1028482;28;20110;-76
2020/12/15 02:19:24;;;;;;;340.10;44.85;;;;;;;0.69;100.00;95790.44;1028497;28;20061;-77
2020/12/15 02:20:05;;;;;;;407.38;53.20;;;;;;;0.63;100.00;95792.69;1028454;28;20366;-77
2020/12/15 02:20:37;;;;;;;249.73;38.13;;;;;;;0.69;100.00;95794.84;1024587;29;20019;-78
2020/12/15 02:21:08;;;;;;;280.63;42.17;;;;;;;0.64;100.00;95787.34;1032304;28;20117;-78
2020/12/15 02:21:51;;;;;;;254.85;37.30;;;;;;;0.69;100.00;95789.63;1024449;28;20035;-77
2020/12/15 02:22:22;;;;;;;230.13;36.83;;;;;;;0.75;100.00;95789.16;1028458;28;20118;-77
2020/12/15 02:22:53;;;;;;;218.15;36.42;;;;;;;0.77;100.00;95778.56;1032589;28;20453;-77